Time;durP1;ratioP1;P1;durP2;ratioP2;P2;SDS_P1;SDS_P2;PMS_P1;PMS_P2;Temp;Humidity;BMP_temperature;BMP_pressure;BME280_temperature;BME280_humidity;BME280_pressure;Samples;Min_cycle;Max_cycle;Signal;HPM_P1;HPM_P2
2023/08/21 00:00:42;;;;;;;5.28;2.28;;;;;;;16.58;100.00;102094.72;4986498;28;20190;-48
2023/08/21 00:03:08;;;;;;;8.77;2.92;;;;;;;16.57;100.00;102095.66;4986042;28;20256;-51
2023/08/21 00:05:33;;;;;;;8.05;2.58;;;;;;;16.50;100.00;102093.28;4979931;28;20186;-50
2023/08/21 00:07:59;;;;;;;8.27;2.60;;;;;;;16.50;100.00;102085.19;4981756;28;20192;-48
2023/08/21 00:10:24;;;;;;;8.80;3.00;;;;;;;16.38;100.00;102082.06;4983928;28;20185;-50
2023/08/21 00:12:50;;;;;;;4.43;2.60;;;;;;;16.44;100.00;102084.50;4984661;28;20682;-48
2023/08/21 00:15:15;;;;;;;6.95;2.85;;;;;;;16.42;100.00;102077.38;4981468;28;20303;-47
2023/08/21 00:17:41;;;;;;;10.77;2.90;;;;;;;16.34;100.00;102087.66;4984954;28;20231;-49
2023/08/21 00:20:09;;;;;;;6.68;2.58;;;;;;;16.36;100.00;102085.78;4982386;28;20217;-48
2023/08/21 00:22:35;;;;;;;9.50;3.40;;;;;;;16.32;100.00;102089.56;4980084;28;20192;-49
2023/08/21 00:25:01;;;;;;;10.02;3.30;;;;;;;16.32;100.00;102079.59;4988491;28;20182;-50
2023/08/21 00:27:27;;;;;;;6.03;2.38;;;;;;;16.37;100.00;102083.00;4983777;28;20719;-49
2023/08/21 00:29:53;;;;;;;7.95;2.90;;;;;;;16.34;100.00;102087.66;4984028;28;20197;-49
2023/08/21 00:32:19;;;;;;;4.32;2.30;;;;;;;16.36;100.00;102086.66;4980810;28;20220;-48
2023/08/21 00:34:44;;;;;;;5.43;2.47;;;;;;;16.37;100.00;102085.69;4966147;28;20181;-49
2023/08/21 00:37:10;;;;;;;7.65;2.90;;;;;;;16.36;100.00;102096.59;4981647;28;20215;-50
2023/08/21 00:39:36;;;;;;;4.88;3.05;;;;;;;16.33;100.00;102091.31;4983427;28;20285;-48
2023/08/21 00:42:02;;;;;;;5.65;2.35;;;;;;;16.40;100.00;102084.72;4972702;28;20193;-51
2023/08/21 00:44:27;;;;;;;8.35;3.33;;;;;;;16.28;100.00;102086.97;4964291;28;20166;-46
2023/08/21 00:46:53;;;;;;;9.77;3.55;;;;;;;16.29;100.00;102087.88;4986041;28;20739;-49
2023/08/21 00:49:20;;;;;;;8.60;3.88;;;;;;;16.38;100.00;102087.47;4972792;28;20207;-49
2023/08/21 00:51:47;;;;;;;8.68;2.92;;;;;;;16.44;100.00;102089.91;4984457;28;20178;-48
2023/08/21 00:54:12;;;;;;;14.85;5.03;;;;;;;16.48;100.00;102093.34;4978119;28;20175;-47
2023/08/21 00:56:38;;;;;;;12.43;5.05;;;;;;;16.48;100.00;102094.22;4986187;28;20701;-48
2023/08/21 00:59:04;;;;;;;13.30;5.47;;;;;;;16.54;100.00;102087.69;4954881;28;20201;-49
2023/08/21 01:01:30;;;;;;;10.80;5.15;;;;;;;16.53;100.00;102085.94;4964397;28;20244;-47
2023/08/21 01:03:56;;;;;;;16.15;6.75;;;;;;;16.56;100.00;102093.91;4980915;28;20189;-48
2023/08/21 01:06:21;;;;;;;16.17;6.40;;;;;;;16.62;100.00;102098.19;4982107;28;20177;-49
2023/08/21 01:08:57;;;;;;;26.85;9.13;;;;;;;16.63;100.00;102091.81;4965360;28;20252;-50
2023/08/21 01:11:38;;;;;;;22.23;7.85;;;;;;;16.66;100.00;102095.28;4985551;28;20897;-51
2023/08/21 01:14:14;;;;;;;20.30;10.20;;;;;;;16.60;100.00;102102.78;4983319;28;20224;-50
2023/08/21 01:16:43;;;;;;;29.33;12.43;;;;;;;16.62;100.00;102100.91;4981514;28;20508;-49
2023/08/21 01:19:18;;;;;;;27.05;13.30;;;;;;;16.60;100.00;102103.66;4983814;28;20219;-49
2023/08/21 01:21:44;;;;;;;28.95;13.57;;;;;;;16.55;100.00;102104.78;4981412;28;20185;-49
2023/08/21 01:24:10;;;;;;;36.30;16.08;;;;;;;16.55;100.00;102112.91;4968695;28;20303;-49
2023/08/21 01:26:35;;;;;;;28.67;15.65;;;;;;;16.55;100.00;102112.91;4970841;28;20269;-51
2023/08/21 01:29:01;;;;;;;39.25;16.20;;;;;;;16.56;100.00;102114.69;4966609;28;20205;-48
2023/08/21 01:31:31;;;;;;;34.10;16.45;;;;;;;16.42;100.00;102110.75;4981469;28;20165;-51
2023/08/21 01:34:04;;;;;;;27.85;15.40;;;;;;;16.52;100.00;102115.75;4981038;28;20197;-50
2023/08/21 01:36:31;;;;;;;38.75;16.67;;;;;;;16.48;100.00;102105.03;4979697;28;20185;-50
2023/08/21 01:38:57;;;;;;;38.33;16.85;;;;;;;16.48;100.00;102115.88;4987459;28;20280;-50
2023/08/21 01:41:25;;;;;;;37.65;17.08;;;;;;;16.45;100.00;102126.84;4986041;28;20181;-48
2023/08/21 01:43:53;;;;;;;32.33;15.05;;;;;;;16.56;100.00;102122.81;4976132;28;20652;-49
2023/08/21 01:46:18;;;;;;;27.30;14.52;;;;;;;16.56;100.00;102117.38;4967474;28;20243;-48
2023/08/21 01:48:44;;;;;;;29.63;15.05;;;;;;;16.50;100.00;102118.53;4966461;28;20193;-50
2023/08/21 01:51:09;;;;;;;31.02;15.38;;;;;;;16.48;100.00;102118.56;4982987;28;20193;-48
2023/08/21 01:53:35;;;;;;;32.85;14.05;;;;;;;16.55;100.00;102126.44;4970239;28;20203;-47
2023/08/21 01:56:00;;;;;;;26.50;13.55;;;;;;;16.56;100.00;102122.81;4975557;28;20640;-46
2023/08/21 01:58:26;;;;;;;28.33;13.63;;;;;;;16.57;100.00;102120.00;4958230;28;20654;-48
2023/08/21 02:00:51;;;;;;;22.65;13.85;;;;;;;16.51;100.00;102135.63;4961611;28;20178;-49
2023/08/21 02:03:17;;;;;;;28.42;14.82;;;;;;;16.38;100.00;102127.16;4983872;28;20213;-49
2023/08/21 02:05:43;;;;;;;28.88;15.25;;;;;;;16.35;100.00;102130.84;4981005;28;20565;-49
2023/08/21 02:08:12;;;;;;;31.58;15.90;;;;;;;16.33;100.00;102138.16;4962501;28;20209;-50
2023/08/21 02:10:38;;;;;;;36.38;18.50;;;;;;;16.23;100.00;102132.25;4946851;28;20186;-48
2023/08/21 02:13:03;;;;;;;31.30;17.08;;;;;;;16.32;100.00;102127.41;4978043;28;20724;-48
2023/08/21 02:15:29;;;;;;;36.55;18.38;;;;;;;16.25;100.00;102132.22;4969696;28;20228;-50
2023/08/21 02:17:54;;;;;;;67.13;19.15;;;;;;;16.21;100.00;102126.03;4962929;28;20176;-47
2023/08/21 02:20:20;;;;;;;30.88;18.55;;;;;;;16.25;100.00;102127.66;4982870;28;20193;-48
2023/08/21 02:22:45;;;;;;;35.80;19.50;;;;;;;16.16;100.00;102122.66;4979337;28;20185;-51
2023/08/21 02:25:11;;;;;;;30.10;18.67;;;;;;;16.19;100.00;102132.44;4983051;28;20643;-47
2023/08/21 02:27:36;;;;;;;40.88;20.83;;;;;;;16.17;100.00;102129.78;4979872;28;20173;-47
2023/08/21 02:30:03;;;;;;;48.90;21.75;;;;;;;16.13;100.00;102128.16;4980529;28;20217;-49
2023/08/21 02:32:29;;;;;;;50.58;21.13;;;;;;;16.11;100.00;102135.44;4965860;28;20224;-47
2023/08/21 02:34:54;;;;;;;39.35;20.77;;;;;;;16.08;100.00;102132.88;4972549;28;20231;-48
2023/08/21 02:37:20;;;;;;;48.00;22.13;;;;;;;16.11;100.00;102138.16;4978313;28;20653;-48
2023/08/21 02:39:45;;;;;;;33.90;22.02;;;;;;;16.07;100.00;102139.25;4982111;28;20247;-50
2023/08/21 02:42:11;;;;;;;64.10;22.92;;;;;;;16.01;100.00;102151.19;4985577;28;20196;-49
2023/08/21 02:44:36;;;;;;;30.00;19.50;;;;;;;16.04;100.00;102147.47;4981805;28;20260;-48
2023/08/21 02:47:02;;;;;;;46.85;20.15;;;;;;;15.99;100.00;102147.66;4977291;28;20289;-48
2023/08/21 02:49:27;;;;;;;32.50;20.48;;;;;;;16.01;100.00;102156.59;4981034;28;20259;-51
2023/08/21 02:51:53;;;;;;;64.57;21.77;;;;;;;15.88;100.00;102152.59;4968613;28;20171;-48
2023/08/21 02:54:18;;;;;;;27.88;18.70;;;;;;;15.98;100.00;102154.00;4981528;28;20189;-50
2023/08/21 02:56:44;;;;;;;37.55;21.50;;;;;;;15.90;100.00;102156.13;4978106;28;20233;-52
2023/08/21 02:59:10;;;;;;;34.00;19.45;;;;;;;15.95;100.00;102156.81;4980436;28;20208;-49
2023/08/21 03:01:36;;;;;;;33.92;20.02;;;;;;;15.98;100.00;102153.09;4976942;28;20276;-47
2023/08/21 03:04:01;;;;;;;41.45;23.23;;;;;;;16.06;100.00;102151.88;4977123;28;20208;-47
2023/08/21 03:06:27;;;;;;;41.08;22.67;;;;;;;15.93;100.00;102160.53;4968987;28;20209;-49
2023/08/21 03:08:53;;;;;;;40.97;20.48;;;;;;;15.97;100.00;102160.34;4983850;28;20571;-47
2023/08/21 03:11:19;;;;;;;35.53;19.05;;;;;;;15.82;100.00;102160.94;4983364;28;20178;-51
2023/08/21 03:13:45;;;;;;;33.00;18.30;;;;;;;15.80;100.00;102154.72;4982766;28;20213;-52
2023/08/21 03:16:10;;;;;;;31.52;17.75;;;;;;;15.74;100.00;102163.06;4977628;28;20360;-49
2023/08/21 03:18:55;;;;;;;25.50;16.65;;;;;;;15.73;100.00;102162.19;4969027;28;20202;-47
2023/08/21 03:21:23;;;;;;;29.33;17.85;;;;;;;15.74;100.00;102166.66;4978760;28;20624;-48
2023/08/21 03:23:55;;;;;;;27.55;16.13;;;;;;;15.81;100.00;102167.31;4960644;28;20193;-48
2023/08/21 03:26:21;;;;;;;32.40;18.88;;;;;;;15.85;100.00;102166.22;4985150;28;20667;-49
2023/08/21 03:28:46;;;;;;;30.55;18.15;;;;;;;15.71;100.00;102171.25;4971236;28;20289;-51
2023/08/21 03:31:12;;;;;;;28.08;18.77;;;;;;;15.70;100.00;102164.97;4977969;28;20189;-46
2023/08/21 03:33:38;;;;;;;26.25;16.35;;;;;;;15.82;100.00;102166.34;4977873;28;20217;-47
2023/08/21 03:36:03;;;;;;;30.50;17.10;;;;;;;15.78;100.00;102162.00;4965960;28;20522;-49
2023/08/21 03:38:29;;;;;;;25.98;16.65;;;;;;;15.81;100.00;102167.31;4983154;28;20213;-51
2023/08/21 03:40:55;;;;;;;27.63;18.25;;;;;;;15.76;100.00;102170.16;4963231;28;20598;-50
2023/08/21 03:43:21;;;;;;;27.23;17.45;;;;;;;15.64;100.00;102162.50;4968788;28;20165;-48
2023/08/21 03:45:47;;;;;;;32.22;17.90;;;;;;;15.72;100.00;102163.16;4971288;28;20202;-49
2023/08/21 03:48:13;;;;;;;29.75;17.02;;;;;;;15.79;100.00;102171.88;4962964;28;20193;-50
2023/08/21 03:50:39;;;;;;;25.95;16.52;;;;;;;15.92;100.00;102175.88;4962119;28;20174;-46
2023/08/21 03:53:04;;;;;;;25.23;16.95;;;;;;;15.93;100.00;102166.81;4969863;28;20197;-48
2023/08/21 03:55:30;;;;;;;28.20;17.42;;;;;;;15.88;100.00;102170.66;4985441;28;20186;-44
2023/08/21 03:57:56;;;;;;;33.80;17.20;;;;;;;15.93;100.00;102163.22;4956480;28;20173;-46
2023/08/21 04:00:22;;;;;;;27.27;16.30;;;;;;;15.93;100.00;102169.50;4971779;28;20172;-45
2023/08/21 04:02:49;;;;;;;26.33;15.50;;;;;;;15.97;100.00;102159.47;4971910;28;20184;-48
2023/08/21 04:05:15;;;;;;;27.38;15.80;;;;;;;15.92;100.00;102169.56;4971810;28;20177;-51
2023/08/21 04:07:41;;;;;;;27.13;15.45;;;;;;;15.91;100.00;102166.00;4971176;28;20173;-49
2023/08/21 04:10:07;;;;;;;26.25;15.20;;;;;;;15.95;100.00;102172.16;4972090;28;20430;-42
2023/08/21 04:12:32;;;;;;;23.17;14.60;;;;;;;15.93;100.00;102169.50;4962524;28;20268;-44
2023/08/21 04:14:58;;;;;;;29.95;14.85;;;;;;;15.94;100.00;102165.88;4952764;28;20167;-46
2023/08/21 04:17:24;;;;;;;27.40;13.98;;;;;;;15.94;100.00;102174.00;4977088;28;20193;-43
2023/08/21 04:19:50;;;;;;;28.38;13.45;;;;;;;16.06;100.00;102168.09;4971952;28;20268;-44
2023/08/21 04:22:16;;;;;;;24.42;14.55;;;;;;;16.02;100.00;102158.31;4989411;28;20193;-47
2023/08/21 04:24:42;;;;;;;28.75;14.15;;;;;;;16.02;100.00;102157.47;4991376;28;20207;-44
2023/08/21 04:27:08;;;;;;;24.20;14.50;;;;;;;16.02;100.00;102166.44;4971685;28;20269;-45
2023/08/21 04:29:35;;;;;;;24.92;12.35;;;;;;;16.17;100.00;102147.84;4957955;28;20229;-47
2023/08/21 04:32:01;;;;;;;23.02;14.48;;;;;;;16.14;100.00;102159.69;4960881;28;20169;-44
2023/08/21 04:34:26;;;;;;;23.45;13.80;;;;;;;16.19;100.00;102164.91;4993075;28;20745;-43
2023/08/21 04:36:52;;;;;;;18.67;11.85;;;;;;;16.30;100.00;102159.06;4971548;28;20182;-49
2023/08/21 04:39:18;;;;;;;27.90;15.07;;;;;;;16.19;100.00;102164.91;4973300;28;20190;-47
2023/08/21 04:41:45;;;;;;;21.55;13.35;;;;;;;16.26;100.00;102167.28;4956006;28;20203;-44
2023/08/21 04:44:11;;;;;;;23.33;14.57;;;;;;;16.24;100.00;102168.28;4956001;28;20173;-44
2023/08/21 04:46:36;;;;;;;24.77;13.88;;;;;;;16.30;100.00;102159.94;4963764;28;20186;-47
2023/08/21 04:49:02;;;;;;;22.00;12.75;;;;;;;16.30;100.00;102162.63;4968366;28;20683;-43
2023/08/21 04:51:28;;;;;;;23.90;15.38;;;;;;;16.26;100.00;102155.59;4966990;28;20260;-41
2023/08/21 04:53:53;;;;;;;21.75;14.48;;;;;;;16.27;100.00;102146.53;4974973;28;20219;-45
2023/08/21 04:56:22;;;;;;;24.23;15.02;;;;;;;16.24;100.00;102150.22;4974995;28;20220;-42
2023/08/21 04:58:48;;;;;;;29.85;16.48;;;;;;;16.15;100.00;102149.75;4965266;28;20225;-47
2023/08/21 05:01:13;;;;;;;27.92;16.77;;;;;;;16.21;100.00;102141.38;4972821;28;20178;-49
2023/08/21 05:03:44;;;;;;;29.95;17.63;;;;;;;16.13;100.00;102148.91;4981546;23;20181;-46
2023/08/21 05:06:09;;;;;;;32.47;17.55;;;;;;;16.14;100.00;102142.59;4925132;29;20205;-47
2023/08/21 05:08:35;;;;;;;25.58;15.63;;;;;;;16.23;100.00;102148.47;4942653;28;20290;-46
2023/08/21 05:11:03;;;;;;;27.85;15.85;;;;;;;16.24;100.00;102143.94;4954186;28;20598;-45
2023/08/21 05:13:31;;;;;;;27.65;16.75;;;;;;;16.19;100.00;102152.25;4941283;28;20293;-47
2023/08/21 05:15:58;;;;;;;26.42;15.43;;;;;;;16.28;100.00;102153.69;4948531;29;20555;-48
2023/08/21 05:18:28;;;;;;;29.55;16.75;;;;;;;16.25;100.00;102154.72;4939731;28;20697;-48
2023/08/21 05:20:56;;;;;;;25.00;15.63;;;;;;;16.38;100.00;102157.78;4933194;28;20190;-48
2023/08/21 05:23:21;;;;;;;32.55;18.50;;;;;;;16.33;100.00;102156.22;4938028;29;20179;-46
2023/08/21 05:25:49;;;;;;;29.23;17.15;;;;;;;16.26;100.00;102161.00;4935985;28;20588;-46
2023/08/21 05:28:15;;;;;;;28.90;15.68;;;;;;;16.30;100.00;102161.75;4950875;28;20600;-46
2023/08/21 05:30:40;;;;;;;27.08;16.38;;;;;;;16.28;100.00;102164.53;4952371;28;20190;-48
2023/08/21 05:33:06;;;;;;;28.15;14.93;;;;;;;16.37;100.00;102156.03;4940564;28;20661;-45
2023/08/21 05:35:38;;;;;;;28.00;15.50;;;;;;;16.30;100.00;102162.63;4940698;28;20199;-45
2023/08/21 05:38:03;;;;;;;23.67;15.20;;;;;;;16.39;100.00;102161.38;4940118;28;20764;-46
2023/08/21 05:40:29;;;;;;;27.23;15.93;;;;;;;16.40;100.00;102165.84;4952219;28;20183;-47
2023/08/21 05:42:56;;;;;;;28.30;16.92;;;;;;;16.34;100.00;102156.16;4948282;29;20227;-47
2023/08/21 05:45:21;;;;;;;23.67;15.25;;;;;;;16.44;100.00;102162.97;4938356;28;20209;-47
2023/08/21 05:47:46;;;;;;;26.45;16.50;;;;;;;16.42;100.00;102167.56;4937738;28;20191;-44
2023/08/21 05:50:12;;;;;;;27.77;15.65;;;;;;;16.41;100.00;102167.59;4941686;29;20356;-48
2023/08/21 05:52:38;;;;;;;25.17;14.07;;;;;;;16.43;100.00;102163.88;4941593;28;20195;-47
2023/08/21 05:55:05;;;;;;;29.42;15.05;;;;;;;16.42;100.00;102167.56;4940393;29;20212;-45
2023/08/21 05:57:30;;;;;;;26.48;13.65;;;;;;;16.34;100.00;102163.41;4938089;28;20187;-45
2023/08/21 05:59:56;;;;;;;21.70;12.45;;;;;;;16.52;100.00;102168.03;4947845;28;20236;-46
2023/08/21 06:02:22;;;;;;;23.40;13.20;;;;;;;16.31;100.00;102172.53;4935306;28;20170;-45
2023/08/21 06:04:47;;;;;;;27.25;14.13;;;;;;;16.34;100.00;102166.97;4934109;28;20615;-47
2023/08/21 06:07:13;;;;;;;26.73;13.63;;;;;;;16.37;100.00;102176.78;4941769;29;20257;-46
2023/08/21 06:09:38;;;;;;;24.48;14.63;;;;;;;16.34;100.00;102185.03;4941687;28;20207;-47
2023/08/21 06:12:04;;;;;;;17.67;11.23;;;;;;;16.48;100.00;102180.78;4943723;28;20570;-46
2023/08/21 06:14:32;;;;;;;17.30;12.10;;;;;;;16.46;100.00;102174.59;4936935;28;20198;-44
2023/08/21 06:17:01;;;;;;;20.48;11.52;;;;;;;16.52;100.00;102178.84;4938115;29;20705;-47
2023/08/21 06:19:28;;;;;;;19.48;11.75;;;;;;;16.56;100.00;102183.19;4935943;28;20199;-47
2023/08/21 06:21:55;;;;;;;17.65;11.85;;;;;;;16.54;100.00;102181.50;4933048;29;20186;-47
2023/08/21 06:24:22;;;;;;;14.63;9.95;;;;;;;16.57;100.00;102189.47;4940101;28;20266;-47
2023/08/21 06:26:53;;;;;;;15.95;9.80;;;;;;;16.63;100.00;102173.88;4938499;28;20491;-44
2023/08/21 06:29:20;;;;;;;18.95;11.20;;;;;;;16.60;100.00;102187.53;4936083;28;20222;-45
2023/08/21 06:31:46;;;;;;;24.52;13.00;;;;;;;16.51;100.00;102181.63;4936505;28;20713;-47
2023/08/21 06:34:11;;;;;;;20.98;12.35;;;;;;;16.65;100.00;102188.22;4941056;28;20286;-48
2023/08/21 06:36:38;;;;;;;22.00;12.30;;;;;;;16.71;100.00;102187.09;4939852;28;20194;-45
2023/08/21 06:39:04;;;;;;;20.67;12.35;;;;;;;16.47;100.00;102189.00;4941664;28;20195;-47
2023/08/21 06:41:30;;;;;;;19.83;11.38;;;;;;;16.54;100.00;102195.03;4941112;28;20194;-48
2023/08/21 06:43:57;;;;;;;20.58;10.13;;;;;;;16.64;100.00;102186.47;4937634;28;20952;-49
2023/08/21 06:46:23;;;;;;;17.55;10.02;;;;;;;16.83;100.00;102197.41;4932562;28;21141;-46
2023/08/21 06:48:50;;;;;;;14.40;9.57;;;;;;;16.87;100.00;102193.63;4938384;28;20274;-49
2023/08/21 06:51:16;;;;;;;19.50;10.63;;;;;;;16.73;100.00;102187.91;4937724;28;20585;-46
2023/08/21 06:53:41;;;;;;;19.05;10.07;;;;;;;16.82;100.00;102184.84;4937001;28;20207;-45
2023/08/21 06:56:07;;;;;;;20.20;9.90;;;;;;;17.01;100.00;102189.44;4938731;28;20523;-48
2023/08/21 06:58:33;;;;;;;16.83;10.00;;;;;;;16.90;100.00;102192.63;4937158;28;20211;-47
2023/08/21 07:01:00;;;;;;;20.85;10.13;;;;;;;16.82;100.00;102197.50;4940362;28;20634;-48
2023/08/21 07:03:26;;;;;;;15.07;9.90;;;;;;;17.25;100.00;102192.91;4934387;28;20428;-47
2023/08/21 07:05:56;;;;;;;15.20;9.85;;;;;;;16.96;100.00;102183.34;4933349;28;20617;-47
2023/08/21 07:08:22;;;;;;;18.13;9.10;;;;;;;17.57;100.00;102180.63;4941075;28;20330;-47
2023/08/21 07:10:48;;;;;;;20.23;9.27;;;;;;;17.47;100.00;102176.56;4936760;28;20254;-49
2023/08/21 07:13:13;;;;;;;11.85;8.07;;;;;;;17.94;100.00;102178.94;4933010;28;20190;-44
2023/08/21 07:15:38;;;;;;;13.20;7.57;;;;;;;18.15;100.00;102170.69;4935115;28;20203;-48
2023/08/21 07:18:04;;;;;;;10.85;6.82;;;;;;;18.88;100.00;102175.19;4939102;29;20290;-48
2023/08/21 07:20:29;;;;;;;13.70;7.72;;;;;;;18.82;100.00;102161.91;4939013;28;20186;-46
2023/08/21 07:22:55;;;;;;;11.60;5.75;;;;;;;19.28;100.00;102159.50;4938770;28;20245;-47
2023/08/21 07:25:20;;;;;;;12.15;5.45;;;;;;;19.25;100.00;102162.38;4940313;28;20175;-50
2023/08/21 07:27:46;;;;;;;11.95;5.43;;;;;;;19.63;100.00;102151.25;4936896;28;20214;-45
2023/08/21 07:30:11;;;;;;;11.75;5.15;;;;;;;19.53;100.00;102148.19;4936540;28;20301;-47
2023/08/21 07:32:37;;;;;;;14.55;7.10;;;;;;;18.60;100.00;102163.94;4937514;28;20202;-48
2023/08/21 07:35:03;;;;;;;14.18;6.82;;;;;;;18.53;100.00;102166.09;4936518;28;20638;-44
2023/08/21 07:37:28;;;;;;;14.57;6.47;;;;;;;18.71;100.00;102167.00;4941887;29;20179;-49
2023/08/21 07:39:57;;;;;;;11.27;5.80;;;;;;;18.90;100.00;102156.97;4935316;28;20243;-47
2023/08/21 07:42:23;;;;;;;10.45;5.03;;;;;;;19.31;100.00;102156.63;4938374;28;20167;-47
2023/08/21 07:44:48;;;;;;;9.15;4.40;;;;;;;20.00;100.00;102154.66;4938585;28;20671;-49
2023/08/21 07:47:14;;;;;;;10.45;4.30;;;;;;;19.78;100.00;102149.56;4936014;28;20190;-46
2023/08/21 07:49:39;;;;;;;8.30;4.28;;;;;;;18.86;100.00;102144.50;4940311;28;20613;-45
2023/08/21 07:52:05;;;;;;;9.00;3.58;;;;;;;19.34;100.00;102151.00;4940122;28;20179;-47
2023/08/21 07:54:30;;;;;;;9.00;3.20;;;;;;;19.33;100.00;102145.69;4932614;28;20658;-47
2023/08/21 07:56:56;;;;;;;6.85;3.28;;;;;;;19.66;100.00;102147.50;4936462;28;20551;-46
2023/08/21 07:59:22;;;;;;;8.68;3.10;;;;;;;19.99;100.00;102152.06;4942855;28;20237;-46
2023/08/21 08:01:47;;;;;;;11.18;4.03;;;;;;;19.38;100.00;102140.88;4938730;28;20183;-48
2023/08/21 08:04:13;;;;;;;9.80;3.35;;;;;;;19.67;100.00;102147.41;4938965;28;20214;-46
2023/08/21 08:06:39;;;;;;;10.85;3.45;;;;;;;20.57;100.00;102137.78;4944456;28;20277;-45
2023/08/21 08:09:04;;;;;;;9.05;3.10;;;;;;;20.86;100.00;102135.16;4938670;28;20186;-46
2023/08/21 08:11:30;;;;;;;8.20;3.33;;;;;;;20.76;100.00;102140.28;4938209;28;20294;-49
2023/08/21 08:13:56;;;;;;;7.05;2.50;;;;;;;20.88;100.00;102131.38;4943958;28;20202;-45
2023/08/21 08:16:21;;;;;;;11.18;3.20;;;;;;;20.35;100.00;102135.44;4944357;28;20528;-46
2023/08/21 08:18:47;;;;;;;11.38;2.97;;;;;;;20.41;99.29;102124.19;4942057;28;20273;-48
2023/08/21 08:21:12;;;;;;;7.05;2.30;;;;;;;21.54;98.78;102126.44;4938695;28;20213;-47
2023/08/21 08:23:38;;;;;;;7.03;2.22;;;;;;;22.02;94.68;102119.63;4943300;29;20194;-45
2023/08/21 08:26:03;;;;;;;9.60;2.72;;;;;;;21.51;90.76;102111.09;4941378;28;20178;-49
2023/08/21 08:28:29;;;;;;;12.77;2.30;;;;;;;21.71;89.89;102122.59;4942892;28;20238;-48
2023/08/21 08:30:54;;;;;;;9.27;2.72;;;;;;;22.00;89.00;102117.97;4939257;29;20194;-46
2023/08/21 08:33:20;;;;;;;11.05;2.55;;;;;;;21.76;87.36;102106.81;4937135;28;20191;-49
2023/08/21 08:35:45;;;;;;;8.43;2.65;;;;;;;21.63;86.06;102106.72;4942047;28;20257;-46
2023/08/21 08:38:11;;;;;;;5.05;2.17;;;;;;;21.36;86.96;102112.06;4944477;28;20239;-46
2023/08/21 08:40:43;;;;;;;8.60;2.63;;;;;;;21.40;85.24;102110.88;4942066;29;20300;-48
2023/08/21 08:43:11;;;;;;;10.55;2.53;;;;;;;21.70;84.69;102109.94;4941830;28;20502;-48
2023/08/21 08:45:36;;;;;;;8.52;2.70;;;;;;;21.39;84.83;102103.69;4940967;28;20186;-48
2023/08/21 08:48:04;;;;;;;11.38;2.75;;;;;;;21.60;83.16;102105.09;4942344;28;20288;-47
2023/08/21 08:50:31;;;;;;;7.75;2.30;;;;;;;21.96;81.98;102097.31;4938960;28;20182;-47
2023/08/21 08:52:58;;;;;;;9.35;2.60;;;;;;;22.50;80.84;102083.69;4945001;28;20203;-47
2023/08/21 08:55:24;;;;;;;10.35;2.40;;;;;;;22.63;78.15;102084.59;4938821;28;20598;-47
2023/08/21 08:57:51;;;;;;;8.05;2.30;;;;;;;21.96;78.50;102075.50;4944883;28;20185;-47
2023/08/21 09:00:17;;;;;;;7.85;2.10;;;;;;;21.20;79.58;102095.78;4940601;29;20214;-48
2023/08/21 09:02:42;;;;;;;6.10;1.83;;;;;;;22.06;79.26;102087.53;4937964;28;20170;-47
2023/08/21 09:05:10;;;;;;;6.60;1.88;;;;;;;22.63;77.70;102072.78;4939735;28;20461;-46
2023/08/21 09:07:36;;;;;;;7.75;2.33;;;;;;;22.02;76.51;102058.72;4939521;28;20202;-44
2023/08/21 09:10:02;;;;;;;8.88;1.92;;;;;;;22.24;77.16;102054.53;4940203;28;20214;-45
2023/08/21 09:12:32;;;;;;;9.82;2.35;;;;;;;21.60;77.57;102077.81;4942656;28;20282;-46
2023/08/21 09:14:58;;;;;;;8.77;2.30;;;;;;;21.62;78.26;102082.28;4938099;28;20195;-45
2023/08/21 09:17:25;;;;;;;7.88;2.05;;;;;;;22.39;78.47;102067.13;4940239;28;20171;-46
2023/08/21 09:19:51;;;;;;;7.50;1.92;;;;;;;22.49;77.57;102057.34;4939049;28;20199;-48
2023/08/21 09:22:18;;;;;;;12.35;2.30;;;;;;;22.70;77.46;102067.78;4940543;29;20653;-46
2023/08/21 09:25:08;;;;;;;10.95;2.00;;;;;;;22.24;77.39;102069.09;4940420;28;20676;-47
2023/08/21 09:27:35;;;;;;;6.72;1.92;;;;;;;21.94;77.06;102066.53;4938973;28;20517;-47
2023/08/21 09:30:04;;;;;;;8.32;2.00;;;;;;;21.60;77.95;102077.81;4940163;28;20288;-47
2023/08/21 09:32:30;;;;;;;9.30;2.50;;;;;;;20.96;79.23;102090.03;4939295;28;20209;-46
2023/08/21 09:34:56;;;;;;;6.57;2.30;;;;;;;21.83;79.18;102089.06;4935374;28;20614;-48
2023/08/21 09:37:29;;;;;;;9.10;2.22;;;;;;;22.79;77.53;102075.31;4947260;28;20186;-48
2023/08/21 09:40:00;;;;;;;6.57;1.85;;;;;;;22.70;75.54;102057.72;4942615;28;20289;-46
2023/08/21 09:42:26;;;;;;;8.05;2.20;;;;;;;22.98;75.07;102053.00;4944736;28;20284;-46
2023/08/21 09:44:52;;;;;;;7.68;2.03;;;;;;;23.33;73.82;102057.81;4937183;28;20178;-48
2023/08/21 09:47:19;;;;;;;5.22;1.70;;;;;;;23.54;73.30;102048.06;4943546;28;20187;-46
2023/08/21 09:49:45;;;;;;;6.72;1.73;;;;;;;22.57;71.42;102027.66;4941158;28;20202;-49
2023/08/21 09:52:11;;;;;;;9.07;1.90;;;;;;;23.33;71.16;102020.44;4937098;28;20288;-48
2023/08/21 09:54:42;;;;;;;6.68;1.95;;;;;;;23.70;69.66;102014.94;4940303;29;20180;-44
2023/08/21 09:57:08;;;;;;;6.85;1.88;;;;;;;22.76;69.11;102002.63;4943993;28;21205;-45
2023/08/21 09:59:33;;;;;;;6.05;1.83;;;;;;;23.38;69.42;102028.31;4943158;28;20669;-47
2023/08/21 10:02:03;;;;;;;5.72;1.85;;;;;;;23.43;69.07;102016.03;4938534;28;20182;-45
2023/08/21 10:04:31;;;;;;;7.22;1.75;;;;;;;23.05;69.56;102013.38;4940265;29;20198;-48
2023/08/21 10:06:58;;;;;;;8.35;1.92;;;;;;;22.67;71.39;102037.91;4941507;29;20660;-48
2023/08/21 10:09:25;;;;;;;6.32;1.95;;;;;;;22.17;71.06;102032.19;4938854;29;20214;-45
2023/08/21 10:11:53;;;;;;;8.48;2.15;;;;;;;21.80;72.54;102056.53;4941448;28;20196;-48
2023/08/21 10:14:21;;;;;;;5.65;1.60;;;;;;;21.89;73.01;102049.59;4955360;28;20190;-46
2023/08/21 10:16:46;;;;;;;10.93;2.15;;;;;;;22.59;72.23;102043.94;4941601;29;20190;-46
2023/08/21 10:19:14;;;;;;;7.25;1.90;;;;;;;22.44;71.06;102028.63;4945412;28;20204;-44
2023/08/21 10:21:40;;;;;;;5.38;1.70;;;;;;;23.00;70.19;102016.44;4944374;28;20277;-46
2023/08/21 10:24:06;;;;;;;7.30;1.75;;;;;;;22.91;69.55;102017.03;4944974;29;20174;-47
2023/08/21 10:26:38;;;;;;;6.72;1.75;;;;;;;22.41;68.74;102014.19;4936912;29;20193;-45
2023/08/21 10:29:06;;;;;;;4.13;1.63;;;;;;;21.65;70.64;102028.41;4948245;28;20211;-48
2023/08/21 10:31:39;;;;;;;6.85;1.77;;;;;;;21.60;71.97;102036.00;4940656;28;20198;-48
2023/08/21 10:34:12;;;;;;;4.93;1.45;;;;;;;22.49;70.84;102029.16;4940154;29;20197;-47
2023/08/21 10:36:41;;;;;;;4.72;1.27;;;;;;;22.07;70.18;102023.78;4939204;28;20198;-46
2023/08/21 10:39:18;;;;;;;4.32;1.50;;;;;;;22.77;67.62;102003.50;4943999;28;20206;-47
2023/08/21 10:42:14;;;;;;;6.93;1.48;;;;;;;22.90;67.84;102003.50;4939420;28;20214;-45
2023/08/21 10:44:45;;;;;;;4.63;1.38;;;;;;;23.25;69.15;102022.84;4946103;28;20213;-46
2023/08/21 10:47:25;;;;;;;5.50;1.58;;;;;;;22.79;68.72;102013.34;4944934;28;20180;-46
2023/08/21 10:49:55;;;;;;;3.13;1.45;;;;;;;22.95;70.48;102029.50;4937235;29;20297;-46
2023/08/21 10:52:36;;;;;;;5.65;1.60;;;;;;;22.30;69.02;102007.69;4943065;28;20190;-45
2023/08/21 10:55:05;;;;;;;4.13;1.50;;;;;;;22.24;69.49;102021.78;4944533;29;20190;-48
2023/08/21 10:57:32;;;;;;;4.47;1.55;;;;;;;22.61;70.08;102047.44;4942319;28;20190;-46
2023/08/21 11:00:05;;;;;;;4.32;1.42;;;;;;;22.13;70.12;102037.03;4943026;28;20206;-48
2023/08/21 11:02:32;;;;;;;3.70;1.25;;;;;;;22.09;70.04;102031.88;4944315;28;20185;-49
2023/08/21 11:04:59;;;;;;;11.23;1.70;;;;;;;21.55;70.61;102033.56;4976287;23;20285;-44
2023/08/21 11:07:26;;;;;;;3.17;1.33;;;;;;;22.15;70.88;102037.78;4938742;28;20182;-46